createdAt,value
2023-05-03T00:01:39.384Z,99.90
2023-05-03T00:04:12.157Z,99.90
2023-05-03T00:06:45.274Z,99.90
2023-05-03T00:09:17.402Z,99.90
2023-05-03T00:11:50.364Z,99.90
2023-05-03T00:14:22.581Z,99.90
2023-05-03T00:16:54.754Z,99.90
2023-05-03T00:19:33.813Z,99.90
2023-05-03T00:22:07.263Z,99.90
2023-05-03T00:24:39.336Z,99.90
2023-05-03T00:27:11.362Z,99.90
2023-05-03T00:29:43.381Z,99.90
2023-05-03T00:32:16.091Z,99.90
2023-05-03T00:34:53.147Z,99.90
2023-05-03T00:37:25.973Z,99.90
2023-05-03T00:39:58.168Z,99.90
2023-05-03T00:42:30.285Z,99.90
2023-05-03T00:45:05.272Z,99.90
2023-05-03T00:47:37.872Z,99.90
2023-05-03T00:50:12.051Z,99.90
2023-05-03T00:52:44.786Z,99.90
2023-05-03T00:55:17.642Z,99.90
2023-05-03T00:57:49.738Z,99.90
2023-05-03T01:00:22.456Z,99.90
2023-05-03T01:02:55.010Z,99.90
2023-05-03T01:05:32.611Z,99.90
2023-05-03T01:08:15.340Z,99.90
2023-05-03T01:10:58.163Z,99.90
2023-05-03T01:13:44.202Z,99.90
2023-05-03T01:16:37.007Z,99.90
2023-05-03T01:19:47.936Z,99.90
2023-05-03T01:22:44.354Z,99.90
2023-05-03T01:25:16.666Z,99.90
2023-05-03T01:27:48.864Z,99.90
2023-05-03T01:30:24.289Z,99.90
2023-05-03T01:33:16.593Z,99.90
2023-05-03T01:36:05.813Z,99.90
2023-05-03T01:38:38.491Z,99.90
2023-05-03T01:41:12.652Z,99.90
2023-05-03T01:43:46.008Z,99.90
2023-05-03T01:46:19.426Z,99.90
2023-05-03T01:48:51.572Z,99.90
2023-05-03T01:51:23.747Z,99.90
2023-05-03T01:53:55.779Z,99.90
2023-05-03T01:56:28.202Z,99.90
2023-05-03T01:59:00.758Z,99.90
2023-05-03T02:01:33.599Z,99.90
2023-05-03T02:04:06.055Z,99.90
2023-05-03T02:06:38.534Z,99.90
2023-05-03T02:09:10.780Z,99.90
2023-05-03T02:11:44.068Z,99.90
2023-05-03T02:14:16.224Z,99.90
2023-05-03T02:16:48.787Z,99.90
2023-05-03T02:19:21.072Z,99.90
2023-05-03T02:21:53.211Z,99.90
2023-05-03T02:24:25.316Z,99.90
2023-05-03T02:26:58.033Z,99.90
2023-05-03T02:29:31.400Z,99.90
2023-05-03T02:32:05.969Z,99.90
2023-05-03T02:34:39.630Z,99.90
2023-05-03T02:37:13.931Z,99.90
2023-05-03T02:39:46.531Z,99.90
2023-05-03T02:42:20.867Z,99.90
2023-05-03T02:44:54.045Z,99.90
2023-05-03T02:47:26.504Z,99.90
2023-05-03T02:49:58.812Z,99.90
2023-05-03T02:52:31.294Z,99.90
2023-05-03T02:55:05.794Z,99.90
2023-05-03T02:57:39.041Z,99.90
2023-05-03T03:00:15.485Z,99.90
2023-05-03T03:02:48.561Z,99.90
2023-05-03T03:05:21.312Z,99.90
2023-05-03T03:07:55.397Z,99.90
2023-05-03T03:10:29.068Z,99.90
2023-05-03T03:13:01.251Z,99.90
2023-05-03T03:15:39.878Z,99.90
2023-05-03T03:18:12.051Z,99.90
2023-05-03T03:20:44.193Z,99.90
2023-05-03T03:23:16.392Z,99.90
2023-05-03T03:25:48.500Z,99.90
2023-05-03T03:28:21.665Z,99.90
2023-05-03T03:30:54.204Z,99.90
2023-05-03T03:33:29.449Z,99.90
2023-05-03T03:36:10.328Z,99.90
2023-05-03T03:38:46.229Z,99.90
2023-05-03T03:41:19.729Z,99.90
2023-05-03T03:43:52.669Z,99.90
2023-05-03T03:46:25.996Z,99.90
2023-05-03T03:49:01.018Z,99.90
2023-05-03T03:51:35.480Z,99.90
2023-05-03T03:54:08.042Z,99.90
2023-05-03T03:56:43.504Z,99.90
2023-05-03T03:59:15.750Z,99.90
2023-05-03T04:01:49.216Z,99.90
2023-05-03T04:04:21.753Z,99.90
2023-05-03T04:06:55.166Z,99.90
2023-05-03T04:09:30.518Z,99.90
2023-05-03T04:12:03.559Z,99.90
2023-05-03T04:14:36.559Z,99.90
2023-05-03T04:17:08.785Z,99.90
2023-05-03T04:19:41.621Z,99.90
2023-05-03T04:22:14.449Z,99.90
2023-05-03T04:24:46.536Z,99.90
2023-05-03T04:27:19.012Z,99.90
2023-05-03T04:29:51.214Z,99.90
2023-05-03T04:32:24.464Z,99.90
2023-05-03T04:35:00.575Z,99.90
2023-05-03T04:37:33.228Z,99.90
2023-05-03T04:40:09.579Z,99.90
2023-05-03T04:42:45.140Z,99.90
2023-05-03T04:45:18.915Z,99.90
2023-05-03T04:47:51.471Z,99.90
2023-05-03T04:50:24.137Z,99.90
2023-05-03T04:52:56.695Z,99.90
2023-05-03T04:55:30.914Z,99.90
2023-05-03T04:58:04.531Z,99.90
2023-05-03T05:00:36.636Z,99.90
2023-05-03T05:03:14.778Z,99.90
2023-05-03T05:05:47.340Z,99.90
2023-05-03T05:08:21.178Z,99.90
2023-05-03T05:10:58.557Z,99.90
2023-05-03T05:13:39.567Z,99.90
2023-05-03T05:16:11.641Z,99.90
2023-05-03T05:18:48.615Z,99.90
2023-05-03T05:21:31.680Z,99.90
2023-05-03T05:24:09.599Z,99.90
2023-05-03T05:26:46.576Z,99.90
2023-05-03T05:29:20.536Z,99.90
2023-05-03T05:31:53.319Z,99.90
2023-05-03T05:34:27.169Z,99.90
2023-05-03T05:37:00.546Z,99.90
2023-05-03T05:39:32.672Z,99.90
2023-05-03T05:42:05.222Z,99.90
2023-05-03T05:44:38.217Z,99.90
2023-05-03T05:47:11.292Z,99.90
2023-05-03T05:49:44.368Z,99.90
2023-05-03T05:52:17.590Z,99.90
2023-05-03T05:54:49.788Z,99.90
2023-05-03T05:57:22.617Z,99.90
2023-05-03T05:59:54.845Z,99.90
2023-05-03T06:02:27.728Z,99.90
2023-05-03T06:05:01.945Z,99.90
2023-05-03T06:07:35.036Z,99.90
2023-05-03T06:10:08.100Z,99.90
2023-05-03T06:12:41.929Z,99.90
2023-05-03T06:15:19.768Z,99.90
2023-05-03T06:17:52.429Z,99.90
2023-05-03T06:20:24.708Z,99.90
2023-05-03T06:22:57.940Z,99.90
2023-05-03T06:25:30.314Z,99.90
2023-05-03T06:28:02.465Z,99.90
2023-05-03T06:30:37.591Z,99.90
2023-05-03T06:33:15.154Z,99.90
2023-05-03T06:35:49.015Z,99.90
2023-05-03T06:38:23.650Z,99.90
2023-05-03T06:40:55.823Z,99.90
2023-05-03T06:43:27.918Z,99.90
2023-05-03T06:46:07.848Z,99.90
2023-05-03T06:48:40.096Z,99.90
2023-05-03T06:51:12.500Z,99.90
2023-05-03T06:53:46.371Z,99.90
2023-05-03T06:56:18.371Z,99.90
2023-05-03T06:58:50.842Z,99.90
2023-05-03T07:01:23.490Z,99.90
2023-05-03T07:03:56.088Z,99.90
2023-05-03T07:06:28.284Z,99.90
2023-05-03T07:09:00.536Z,99.90
2023-05-03T07:11:34.721Z,99.90
2023-05-03T07:14:07.721Z,99.90
2023-05-03T07:16:39.871Z,99.90
2023-05-03T07:19:12.035Z,99.90
2023-05-03T07:21:44.176Z,99.90
2023-05-03T07:24:16.412Z,99.90
2023-05-03T07:26:49.266Z,99.90
2023-05-03T07:29:21.814Z,99.90
2023-05-03T07:31:54.047Z,99.90
2023-05-03T07:34:26.955Z,99.90
2023-05-03T07:36:59.061Z,99.90
2023-05-03T07:39:31.273Z,99.90
2023-05-03T07:42:03.609Z,99.90
2023-05-03T07:44:35.660Z,99.90
2023-05-03T07:47:08.179Z,99.90
2023-05-03T07:49:40.441Z,99.90
2023-05-03T07:52:12.500Z,99.90
2023-05-03T07:54:46.212Z,99.90
2023-05-03T07:57:18.457Z,99.90
2023-05-03T07:59:50.813Z,99.90
2023-05-03T08:02:23.025Z,99.90
2023-05-03T08:04:55.529Z,99.90
2023-05-03T08:07:28.918Z,99.90
2023-05-03T08:10:02.939Z,99.90
2023-05-03T08:12:36.475Z,99.90
2023-05-03T08:15:09.082Z,99.90
2023-05-03T08:17:45.147Z,99.90
2023-05-03T08:20:17.223Z,99.90
2023-05-03T08:22:49.937Z,99.90
2023-05-03T08:25:23.124Z,99.90
2023-05-03T08:27:55.802Z,99.90
2023-05-03T08:30:27.980Z,99.90
2023-05-03T08:33:00.158Z,99.90
2023-05-03T08:35:32.295Z,99.90
2023-05-03T08:38:05.355Z,99.90
2023-05-03T08:40:39.909Z,99.90
2023-05-03T08:43:15.199Z,99.90
2023-05-03T08:45:47.730Z,99.90
2023-05-03T08:48:19.924Z,99.90
2023-05-03T08:50:54.025Z,99.90
2023-05-03T08:53:26.692Z,99.90
2023-05-03T08:55:58.794Z,99.90
2023-05-03T08:58:35.424Z,99.90
2023-05-03T09:01:08.969Z,99.90
2023-05-03T09:03:49.764Z,99.90
2023-05-03T09:06:27.491Z,99.90
2023-05-03T09:09:00.282Z,99.90
2023-05-03T09:11:33.704Z,99.90
2023-05-03T09:14:21.511Z,99.90
2023-05-03T09:16:53.808Z,99.90
2023-05-03T09:19:26.433Z,99.90
2023-05-03T09:22:08.048Z,99.90
2023-05-03T09:24:40.189Z,99.90
2023-05-03T09:27:21.443Z,99.90
2023-05-03T09:29:54.749Z,99.90
2023-05-03T09:32:29.181Z,99.90
2023-05-03T09:35:10.639Z,99.90
2023-05-03T09:37:42.668Z,99.90
2023-05-03T09:40:18.559Z,99.90
2023-05-03T09:43:11.533Z,99.90
2023-05-03T09:45:43.786Z,99.90
2023-05-03T09:48:16.875Z,99.90
2023-05-03T09:50:49.391Z,99.90
2023-05-03T09:53:22.763Z,99.90
2023-05-03T09:55:56.274Z,99.90
2023-05-03T09:58:31.178Z,99.90
2023-05-03T10:01:03.373Z,99.90
2023-05-03T10:03:49.140Z,99.90
2023-05-03T10:06:49.159Z,99.90
2023-05-03T10:09:43.293Z,99.90
2023-05-03T10:12:17.842Z,99.90
2023-05-03T10:14:54.326Z,99.90
2023-05-03T10:17:46.129Z,99.90
2023-05-03T10:20:33.698Z,99.90
2023-05-03T10:23:06.481Z,99.90
2023-05-03T10:25:41.186Z,99.90
2023-05-03T10:28:15.284Z,99.90
2023-05-03T10:30:47.615Z,99.90
2023-05-03T10:33:19.906Z,99.90
2023-05-03T10:35:53.913Z,99.90
2023-05-03T10:38:27.749Z,99.90
2023-05-03T10:41:01.834Z,99.90
2023-05-03T10:43:33.879Z,99.90
2023-05-03T10:46:08.932Z,99.90
2023-05-03T10:48:42.608Z,99.90
2023-05-03T10:51:33.283Z,99.90
2023-05-03T10:54:05.397Z,99.90
2023-05-03T10:56:55.222Z,99.90
2023-05-03T10:59:47.842Z,99.90
2023-05-03T11:02:27.563Z,99.90
2023-05-03T11:05:05.624Z,99.90
2023-05-03T11:07:38.087Z,99.90
2023-05-03T11:10:20.198Z,99.90
2023-05-03T11:12:52.536Z,99.90
2023-05-03T11:15:24.972Z,99.90
2023-05-03T11:17:57.423Z,98.90
2023-05-03T11:20:30.229Z,96.50
2023-05-03T11:23:02.978Z,94.10
2023-05-03T11:25:35.741Z,94.80
2023-05-03T11:28:07.832Z,95.40
2023-05-03T11:30:39.907Z,92.20
2023-05-03T11:33:12.227Z,91.00
2023-05-03T11:35:44.360Z,90.50
2023-05-03T11:38:16.811Z,90.30
2023-05-03T11:40:49.057Z,88.70
2023-05-03T11:43:21.293Z,90.00
2023-05-03T11:45:57.336Z,87.20
2023-05-03T11:48:32.541Z,85.60
2023-05-03T11:51:11.199Z,82.90
2023-05-03T11:53:44.116Z,80.00
2023-05-03T11:56:19.009Z,79.00
2023-05-03T11:58:57.628Z,81.90
2023-05-03T12:01:30.463Z,82.20
2023-05-03T12:04:05.669Z,76.00
2023-05-03T12:06:38.948Z,73.50
2023-05-03T12:09:15.878Z,74.90
2023-05-03T12:11:51.372Z,71.90
2023-05-03T12:14:24.954Z,71.40
2023-05-03T12:17:00.314Z,73.00
2023-05-03T12:19:34.412Z,72.10
2023-05-03T12:22:25.800Z,73.50
2023-05-03T12:24:59.683Z,73.30
2023-05-03T12:27:32.866Z,75.60
2023-05-03T12:30:08.421Z,73.50
2023-05-03T12:32:44.401Z,71.60
2023-05-03T12:35:19.791Z,73.60
2023-05-03T12:37:55.809Z,70.80
2023-05-03T12:40:34.336Z,69.50
2023-05-03T12:43:07.530Z,69.50
2023-05-03T12:45:40.745Z,69.40
2023-05-03T12:48:13.524Z,70.80
2023-05-03T12:50:46.082Z,70.60
2023-05-03T12:53:18.681Z,69.70
2023-05-03T12:55:52.160Z,68.60
2023-05-03T12:58:49.866Z,70.60
2023-05-03T13:02:05.228Z,70.80
2023-05-03T13:06:48.092Z,68.40
2023-05-03T13:09:22.616Z,70.10
2023-05-03T13:12:02.582Z,67.60
2023-05-03T13:14:34.856Z,69.60
2023-05-03T13:17:07.678Z,70.40
2023-05-03T13:19:42.122Z,71.10
2023-05-03T13:22:15.156Z,69.20
2023-05-03T13:24:49.894Z,67.20
2023-05-03T13:27:22.012Z,64.50
2023-05-03T13:29:54.430Z,67.90
2023-05-03T13:32:27.494Z,65.80
2023-05-03T13:35:00.392Z,65.60
2023-05-03T13:37:32.796Z,62.80
2023-05-03T13:40:07.003Z,64.20
2023-05-03T13:42:39.690Z,64.70
2023-05-03T13:45:13.724Z,66.30
2023-05-03T13:50:25.529Z,68.80
2023-05-03T13:52:57.851Z,69.70
2023-05-03T13:55:30.164Z,68.40
2023-05-03T13:58:02.391Z,68.40
2023-05-03T14:00:36.390Z,67.40
2023-05-03T14:03:08.992Z,64.20
2023-05-03T14:05:41.601Z,63.10
2023-05-03T14:08:13.734Z,64.40
2023-05-03T14:10:46.389Z,66.00
2023-05-03T14:13:18.598Z,65.80
2023-05-03T14:15:51.206Z,65.90
2023-05-03T14:18:23.508Z,66.50
2023-05-03T14:20:57.234Z,68.00
2023-05-03T14:23:29.431Z,69.70
2023-05-03T14:26:02.747Z,69.30
2023-05-03T14:28:35.659Z,69.30
2023-05-03T14:31:08.029Z,69.70
2023-05-03T14:33:40.814Z,70.60
2023-05-03T14:36:13.591Z,68.70
2023-05-03T14:38:46.099Z,69.30
2023-05-03T14:41:18.166Z,69.10
2023-05-03T14:43:50.375Z,68.20
2023-05-03T14:46:22.463Z,70.00
2023-05-03T14:48:54.671Z,70.80
2023-05-03T14:51:28.030Z,68.50
2023-05-03T14:54:00.246Z,66.30
2023-05-03T14:56:32.809Z,66.10
2023-05-03T14:59:05.080Z,65.60
2023-05-03T15:01:37.847Z,64.10
2023-05-03T15:04:11.007Z,63.90
2023-05-03T15:06:43.164Z,65.90
2023-05-03T15:09:15.396Z,67.10
2023-05-03T15:11:47.469Z,68.40
2023-05-03T15:14:19.752Z,69.20
2023-05-03T15:16:51.936Z,70.10
2023-05-03T15:19:24.340Z,70.40
2023-05-03T15:21:56.401Z,69.50
2023-05-03T15:24:28.804Z,69.20
2023-05-03T15:27:03.500Z,69.90
2023-05-03T15:29:35.943Z,70.90
2023-05-03T15:32:08.286Z,71.00
2023-05-03T15:34:40.490Z,71.80
2023-05-03T15:37:13.435Z,70.40
2023-05-03T15:39:45.545Z,70.60
2023-05-03T15:42:17.569Z,71.10
2023-05-03T15:44:49.946Z,71.60
2023-05-03T15:47:22.990Z,71.20
2023-05-03T15:49:57.606Z,70.00
2023-05-03T15:52:30.103Z,69.70
2023-05-03T15:55:02.316Z,70.80
2023-05-03T15:57:34.548Z,69.10
2023-05-03T16:00:11.987Z,67.70
2023-05-03T16:02:44.377Z,68.70
2023-05-03T16:05:17.852Z,69.50
2023-05-03T16:07:51.070Z,69.50
2023-05-03T16:10:25.077Z,68.80
2023-05-03T16:12:57.346Z,68.90
2023-05-03T16:15:29.824Z,69.10
2023-05-03T16:18:02.102Z,69.90
2023-05-03T16:20:34.437Z,69.90
2023-05-03T16:23:06.548Z,68.50
2023-05-03T16:25:38.634Z,67.70
2023-05-03T16:28:11.232Z,67.30
2023-05-03T16:30:45.072Z,65.20
2023-05-03T16:33:18.383Z,65.00
2023-05-03T16:35:50.460Z,64.60
2023-05-03T16:38:22.912Z,65.80
2023-05-03T16:40:55.021Z,65.30
2023-05-03T16:43:27.345Z,64.80
2023-05-03T16:46:00.856Z,64.40
2023-05-03T16:48:35.069Z,63.60
2023-05-03T16:51:07.584Z,62.90
2023-05-03T16:53:39.612Z,63.60
2023-05-03T16:56:11.822Z,62.90
2023-05-03T16:58:43.909Z,63.30
2023-05-03T17:01:16.520Z,63.40
2023-05-03T17:03:48.906Z,63.30
2023-05-03T17:06:21.140Z,64.20
2023-05-03T17:08:53.482Z,63.30
2023-05-03T17:11:26.213Z,63.30
2023-05-03T17:14:00.858Z,63.10
2023-05-03T17:16:33.386Z,63.60
2023-05-03T17:19:05.823Z,63.80
2023-05-03T17:21:37.957Z,64.20
2023-05-03T17:24:10.067Z,65.10
2023-05-03T17:26:42.396Z,66.90
2023-05-03T17:29:15.394Z,66.90
2023-05-03T17:31:47.655Z,67.10
2023-05-03T17:34:20.696Z,67.90
2023-05-03T17:36:56.268Z,68.60
2023-05-03T17:39:28.635Z,68.30
2023-05-03T17:42:01.789Z,69.30
2023-05-03T17:44:33.943Z,69.30
2023-05-03T17:47:06.101Z,71.10
2023-05-03T17:49:38.456Z,70.70
2023-05-03T17:52:13.628Z,71.90
2023-05-03T17:54:46.462Z,72.00
2023-05-03T17:57:20.804Z,71.90
2023-05-03T17:59:52.869Z,72.60
2023-05-03T18:02:25.230Z,73.40
2023-05-03T18:05:00.385Z,74.20
2023-05-03T18:07:32.541Z,76.00
2023-05-03T18:10:05.741Z,77.00
2023-05-03T18:12:38.093Z,77.50
2023-05-03T18:15:11.543Z,79.00
2023-05-03T18:17:43.762Z,80.70
2023-05-03T18:20:16.216Z,81.10
2023-05-03T18:22:48.856Z,81.20
2023-05-03T18:25:20.979Z,82.20
2023-05-03T18:27:53.358Z,82.30
2023-05-03T18:30:28.406Z,82.80
2023-05-03T18:33:00.602Z,84.40
2023-05-03T18:35:32.705Z,84.10
2023-05-03T18:38:04.961Z,85.80
2023-05-03T18:40:37.099Z,87.10
2023-05-03T18:43:09.222Z,88.90
2023-05-03T18:45:42.068Z,90.10
2023-05-03T18:48:14.233Z,90.50
2023-05-03T18:50:46.345Z,91.20
2023-05-03T18:53:18.523Z,91.80
2023-05-03T18:56:04.043Z,92.40
2023-05-03T18:59:09.853Z,93.60
2023-05-03T19:01:49.589Z,94.80
2023-05-03T19:08:20.846Z,97.70
2023-05-03T19:11:14.700Z,97.40
2023-05-03T19:14:25.162Z,98.80
2023-05-03T19:17:17.544Z,99.90
2023-05-03T19:19:56.499Z,99.90
2023-05-03T19:23:04.900Z,99.90
2023-05-03T19:26:01.097Z,99.90
2023-05-03T19:28:52.441Z,99.90
2023-05-03T19:31:24.797Z,99.90
2023-05-03T19:33:57.204Z,99.90
2023-05-03T19:36:32.438Z,99.90
2023-05-03T19:39:08.154Z,99.90
2023-05-03T19:41:40.654Z,99.90
2023-05-03T19:44:13.647Z,99.90
2023-05-03T19:46:48.446Z,99.90
2023-05-03T19:49:40.536Z,99.90
2023-05-03T19:52:12.703Z,99.90
2023-05-03T19:55:06.503Z,99.90
2023-05-03T19:57:47.792Z,99.90
2023-05-03T20:00:23.865Z,99.90
2023-05-03T20:03:31.022Z,99.90
2023-05-03T20:06:17.086Z,99.90
2023-05-03T20:09:21.126Z,99.90
2023-05-03T20:12:22.041Z,99.90
2023-05-03T20:16:06.026Z,99.90
2023-05-03T20:19:17.596Z,99.90
2023-05-03T20:31:16.931Z,99.90
2023-05-03T20:34:05.648Z,99.90
2023-05-03T20:36:58.648Z,99.90
2023-05-03T20:39:51.175Z,99.90
2023-05-03T20:42:42.502Z,99.90
2023-05-03T20:45:39.611Z,99.90
2023-05-03T20:48:37.542Z,99.90
2023-05-03T20:51:44.482Z,99.90
2023-05-03T20:54:52.245Z,99.90
2023-05-03T20:57:35.162Z,99.90
2023-05-03T21:00:21.456Z,99.90
2023-05-03T21:03:09.912Z,99.90
2023-05-03T21:05:53.086Z,99.90
2023-05-03T21:08:40.971Z,99.90
2023-05-03T21:11:57.521Z,99.90
2023-05-03T21:14:32.227Z,99.90
2023-05-03T21:17:11.653Z,99.90
2023-05-03T21:19:55.320Z,99.90
2023-05-03T21:22:42.492Z,99.90
2023-05-03T21:25:17.474Z,99.90
2023-05-03T21:28:07.664Z,99.90
2023-05-03T21:30:46.394Z,99.90
2023-05-03T21:33:18.691Z,99.90
2023-05-03T21:35:54.473Z,99.90
2023-05-03T21:38:42.815Z,99.90
2023-05-03T21:41:30.068Z,99.90
2023-05-03T21:44:14.544Z,99.90
2023-05-03T21:47:28.407Z,99.90
2023-05-03T21:50:00.698Z,99.90
2023-05-03T21:52:49.286Z,99.90
2023-05-03T21:55:29.580Z,99.90
2023-05-03T21:58:01.968Z,99.90
2023-05-03T22:00:51.011Z,99.90
2023-05-03T22:03:42.268Z,99.90
2023-05-03T22:06:14.775Z,99.90
2023-05-03T22:08:59.114Z,99.90
2023-05-03T22:11:44.539Z,99.90
2023-05-03T22:15:16.210Z,99.90
2023-05-03T22:18:11.547Z,99.90
2023-05-03T22:21:11.052Z,99.90
2023-05-03T22:24:04.884Z,99.90
2023-05-03T22:26:42.648Z,99.90
2023-05-03T22:29:26.533Z,99.90
2023-05-03T22:32:08.070Z,99.90
2023-05-03T22:34:58.579Z,99.90
2023-05-03T22:37:30.757Z,99.90
2023-05-03T22:40:10.537Z,99.90
2023-05-03T22:42:47.813Z,99.90
2023-05-03T22:45:34.236Z,99.90
2023-05-03T22:48:18.378Z,99.90
2023-05-03T22:50:50.530Z,99.90
2023-05-03T22:53:22.735Z,99.90
2023-05-03T22:56:04.316Z,99.90
2023-05-03T22:58:36.507Z,99.90
2023-05-03T23:01:13.872Z,99.90
2023-05-03T23:03:46.634Z,99.90
2023-05-03T23:06:19.493Z,99.90
2023-05-03T23:08:52.129Z,99.90
2023-05-03T23:11:26.065Z,99.90
2023-05-03T23:13:58.159Z,99.90
2023-05-03T23:16:30.270Z,99.90
2023-05-03T23:19:02.360Z,99.90
2023-05-03T23:21:34.447Z,99.90
2023-05-03T23:24:07.354Z,99.90
2023-05-03T23:26:39.698Z,99.90
2023-05-03T23:29:12.268Z,99.90
2023-05-03T23:31:44.869Z,99.90
2023-05-03T23:34:18.729Z,99.90
2023-05-03T23:36:51.295Z,99.90
2023-05-03T23:39:23.302Z,99.90
2023-05-03T23:41:55.457Z,99.90
2023-05-03T23:44:38.490Z,99.90
2023-05-03T23:47:14.496Z,99.90
2023-05-03T23:49:46.799Z,99.90
2023-05-03T23:52:20.536Z,99.90
2023-05-03T23:55:00.888Z,99.90
2023-05-03T23:57:32.986Z,99.90
